createdAt,value
2019-03-27T00:00:02.852Z,6.00
2019-03-27T00:02:36.071Z,5.80
2019-03-27T00:05:07.795Z,5.70
2019-03-27T00:07:39.420Z,5.60
2019-03-27T00:10:11.446Z,5.70
2019-03-27T00:12:43.785Z,5.80
2019-03-27T00:15:16.685Z,5.80
2019-03-27T00:17:48.390Z,5.80
2019-03-27T00:20:20.002Z,5.80
2019-03-27T00:22:52.037Z,6.00
2019-03-27T00:25:23.569Z,6.00
2019-03-27T00:27:55.625Z,6.00
2019-03-27T00:30:27.447Z,5.90
2019-03-27T00:32:59.336Z,5.90
2019-03-27T00:35:31.331Z,6.00
2019-03-27T00:38:03.191Z,6.00
2019-03-27T00:40:35.151Z,5.90
2019-03-27T00:43:06.749Z,5.80
2019-03-27T00:45:38.557Z,5.70
2019-03-27T00:48:10.439Z,5.60
2019-03-27T00:50:42.012Z,5.60
2019-03-27T00:53:13.552Z,5.70
2019-03-27T00:55:45.485Z,5.80
2019-03-27T00:58:17.780Z,5.80
2019-03-27T01:01:12.847Z,5.80
2019-03-27T01:03:44.502Z,5.60
2019-03-27T01:06:16.156Z,5.70
2019-03-27T01:08:48.286Z,5.70
2019-03-27T01:11:20.647Z,5.70
2019-03-27T01:13:52.281Z,5.60
2019-03-27T01:16:23.930Z,5.60
2019-03-27T01:18:55.873Z,5.70
2019-03-27T01:21:27.887Z,5.60
2019-03-27T01:23:59.424Z,5.30
2019-03-27T01:26:31.039Z,5.30
2019-03-27T01:29:02.664Z,5.40
2019-03-27T01:31:34.145Z,5.20
2019-03-27T01:34:05.790Z,5.10
2019-03-27T01:36:37.335Z,4.90
2019-03-27T01:39:09.253Z,4.80
2019-03-27T01:41:40.847Z,4.80
2019-03-27T01:44:12.799Z,4.70
2019-03-27T01:46:45.203Z,4.70
2019-03-27T01:49:16.868Z,4.80
2019-03-27T01:51:48.360Z,4.70
2019-03-27T01:54:19.994Z,4.60
2019-03-27T01:56:51.585Z,4.60
2019-03-27T01:59:23.232Z,4.60
2019-03-27T02:01:54.746Z,4.50
2019-03-27T02:04:26.212Z,4.50
2019-03-27T02:06:58.748Z,4.50
2019-03-27T02:09:30.298Z,4.50
2019-03-27T02:12:01.952Z,4.40
2019-03-27T02:14:33.996Z,4.60
2019-03-27T02:17:05.736Z,4.50
2019-03-27T02:19:37.922Z,4.40
2019-03-27T02:22:11.881Z,4.40
2019-03-27T02:24:46.129Z,4.50
2019-03-27T02:27:17.810Z,4.50
2019-03-27T02:29:49.393Z,4.50
2019-03-27T02:32:21.387Z,4.60
2019-03-27T02:34:53.070Z,4.60
2019-03-27T02:37:24.641Z,4.70
2019-03-27T02:39:56.292Z,4.60
2019-03-27T02:42:28.223Z,4.60
2019-03-27T02:44:59.800Z,4.60
2019-03-27T02:47:31.336Z,4.40
2019-03-27T02:50:02.959Z,4.30
2019-03-27T02:52:35.962Z,4.20
2019-03-27T02:55:07.861Z,4.10
2019-03-27T02:57:39.691Z,4.10
2019-03-27T03:00:12.100Z,4.10
2019-03-27T03:02:43.840Z,4.00
2019-03-27T03:05:15.508Z,3.90
2019-03-27T03:07:47.128Z,3.90
2019-03-27T03:10:18.944Z,3.90
2019-03-27T03:12:50.553Z,3.90
2019-03-27T03:15:24.320Z,3.90
2019-03-27T03:17:56.385Z,3.90
2019-03-27T03:20:28.027Z,4.00
2019-03-27T03:23:00.048Z,4.00
2019-03-27T03:25:31.741Z,4.10
2019-03-27T03:28:03.385Z,4.10
2019-03-27T03:30:35.282Z,4.20
2019-03-27T03:33:06.817Z,4.20
2019-03-27T03:35:38.801Z,4.20
2019-03-27T03:38:10.459Z,4.20
2019-03-27T03:40:42.194Z,4.20
2019-03-27T03:43:14.168Z,4.20
2019-03-27T03:45:46.056Z,4.20
2019-03-27T03:48:17.697Z,4.10
2019-03-27T03:50:49.757Z,4.10
2019-03-27T03:53:21.736Z,4.20
2019-03-27T03:55:54.775Z,4.20
2019-03-27T03:58:29.534Z,4.10
2019-03-27T04:01:01.729Z,4.10
2019-03-27T04:03:36.102Z,4.10
2019-03-27T04:06:07.936Z,4.10
2019-03-27T04:08:39.580Z,4.10
2019-03-27T04:11:11.187Z,4.00
2019-03-27T04:13:43.390Z,4.00
2019-03-27T04:16:15.040Z,4.00
2019-03-27T04:18:46.623Z,4.00
2019-03-27T04:21:18.203Z,4.00
2019-03-27T04:23:50.266Z,4.00
2019-03-27T04:26:21.797Z,4.00
2019-03-27T04:28:53.432Z,4.00
2019-03-27T04:31:25.097Z,4.10
2019-03-27T04:33:57.079Z,4.10
2019-03-27T04:36:28.660Z,4.10
2019-03-27T04:39:00.699Z,4.10
2019-03-27T04:41:32.285Z,4.10
2019-03-27T04:44:04.654Z,4.10
2019-03-27T04:46:36.346Z,4.10
2019-03-27T04:49:08.281Z,4.10
2019-03-27T04:51:39.859Z,4.10
2019-03-27T04:54:11.778Z,4.10
2019-03-27T04:56:43.743Z,4.10
2019-03-27T04:59:15.378Z,4.20
2019-03-27T05:01:47.033Z,4.10
2019-03-27T05:04:18.822Z,4.20
2019-03-27T05:06:50.494Z,4.20
2019-03-27T05:09:24.131Z,4.20
2019-03-27T05:11:55.722Z,4.20
2019-03-27T05:14:27.411Z,4.30
2019-03-27T05:16:59.066Z,4.20
2019-03-27T05:19:31.057Z,4.30
2019-03-27T05:22:02.693Z,4.30
2019-03-27T05:24:34.341Z,4.20
2019-03-27T05:27:06.498Z,4.30
2019-03-27T05:29:38.838Z,4.30
2019-03-27T05:32:10.475Z,4.30
2019-03-27T05:34:41.987Z,4.30
2019-03-27T05:37:13.973Z,4.30
2019-03-27T05:39:45.883Z,4.30
2019-03-27T05:42:17.432Z,4.30
2019-03-27T05:44:49.067Z,4.30
2019-03-27T05:47:20.723Z,4.30
2019-03-27T05:49:52.311Z,4.30
2019-03-27T05:52:23.974Z,4.30
2019-03-27T05:54:55.956Z,4.30
2019-03-27T05:57:27.557Z,4.40
2019-03-27T05:59:59.143Z,4.40
2019-03-27T06:02:31.463Z,4.40
2019-03-27T06:05:03.066Z,4.40
2019-03-27T06:07:34.722Z,4.40
2019-03-27T06:10:07.557Z,4.40
2019-03-27T06:12:39.618Z,4.40
2019-03-27T06:15:11.308Z,4.50
2019-03-27T06:17:43.190Z,4.50
2019-03-27T06:20:15.176Z,4.50
2019-03-27T06:22:46.851Z,4.50
2019-03-27T06:25:18.509Z,4.60
2019-03-27T06:27:50.096Z,4.60
2019-03-27T06:30:22.656Z,4.60
2019-03-27T06:32:54.702Z,4.60
2019-03-27T06:35:26.356Z,4.60
2019-03-27T06:37:57.959Z,4.70
2019-03-27T06:40:29.456Z,4.70
2019-03-27T06:43:01.006Z,4.80
2019-03-27T06:45:33.035Z,4.90
2019-03-27T06:48:04.610Z,5.00
2019-03-27T06:50:36.252Z,5.00
2019-03-27T06:53:08.231Z,5.00
2019-03-27T06:55:39.829Z,5.10
2019-03-27T06:58:11.479Z,5.20
2019-03-27T07:00:43.170Z,5.30
2019-03-27T07:03:15.240Z,5.40
2019-03-27T07:05:46.887Z,5.40
2019-03-27T07:08:19.477Z,5.40
2019-03-27T07:10:51.049Z,5.50
2019-03-27T07:13:23.756Z,5.50
2019-03-27T07:15:55.676Z,5.60
2019-03-27T07:18:39.468Z,5.70
2019-03-27T07:21:00.407Z,5.80
2019-03-27T07:23:32.072Z,5.80
2019-03-27T07:26:03.662Z,5.80
2019-03-27T07:28:35.297Z,5.80
2019-03-27T07:31:07.245Z,5.80
2019-03-27T07:33:38.864Z,5.90
2019-03-27T07:36:10.450Z,5.90
2019-03-27T07:38:42.065Z,5.90
2019-03-27T07:41:14.073Z,6.00
2019-03-27T07:43:45.739Z,6.00
2019-03-27T07:46:17.761Z,6.10
2019-03-27T07:48:54.241Z,6.20
2019-03-27T07:51:23.999Z,6.30
2019-03-27T07:53:55.640Z,6.30
2019-03-27T07:56:27.280Z,6.30
2019-03-27T07:58:59.926Z,6.40
2019-03-27T08:01:31.654Z,6.50
2019-03-27T08:04:03.572Z,6.60
2019-03-27T08:06:35.227Z,6.60
2019-03-27T08:09:08.156Z,6.60
2019-03-27T08:11:39.916Z,6.70
2019-03-27T08:14:11.721Z,6.80
2019-03-27T08:16:43.880Z,6.90
2019-03-27T08:19:15.541Z,6.90
2019-03-27T08:21:47.200Z,7.10
2019-03-27T08:24:18.865Z,7.10
2019-03-27T08:26:50.448Z,7.10
2019-03-27T08:29:22.138Z,7.20
2019-03-27T08:31:53.833Z,7.40
2019-03-27T08:34:25.488Z,7.40
2019-03-27T08:36:57.274Z,7.50
2019-03-27T08:39:28.942Z,7.60
2019-03-27T08:42:01.030Z,7.80
2019-03-27T08:44:32.677Z,7.90
2019-03-27T08:47:04.557Z,8.00
2019-03-27T08:49:36.280Z,8.10
2019-03-27T08:52:08.178Z,8.10
2019-03-27T08:54:39.795Z,8.20
2019-03-27T08:57:11.390Z,8.40
2019-03-27T08:59:42.998Z,8.40
2019-03-27T09:02:15.189Z,8.40
2019-03-27T09:04:46.707Z,8.50
2019-03-27T09:07:19.020Z,8.60
2019-03-27T09:09:50.663Z,8.80
2019-03-27T09:12:22.337Z,8.70
2019-03-27T09:14:53.933Z,8.70
2019-03-27T09:17:25.548Z,8.70
2019-03-27T09:19:57.082Z,8.60
2019-03-27T09:25:41.539Z,8.80
2019-03-27T09:28:13.507Z,9.10
2019-03-27T09:30:54.497Z,9.20
2019-03-27T09:33:39.436Z,9.10
2019-03-27T09:36:13.286Z,9.20
2019-03-27T09:38:55.767Z,9.40
2019-03-27T09:41:27.709Z,9.30
2019-03-27T09:43:59.621Z,9.30
2019-03-27T09:46:31.280Z,9.40
2019-03-27T09:49:03.305Z,9.50
2019-03-27T09:51:34.859Z,9.80
2019-03-27T09:54:06.753Z,10.40
2019-03-27T09:56:38.349Z,10.60
2019-03-27T09:59:10.315Z,10.60
2019-03-27T10:01:41.907Z,10.20
2019-03-27T10:04:13.558Z,10.00
2019-03-27T10:06:45.689Z,10.00
2019-03-27T10:09:17.534Z,9.90
2019-03-27T10:11:49.197Z,10.10
2019-03-27T10:14:20.826Z,10.10
2019-03-27T10:16:52.464Z,10.10
2019-03-27T10:19:25.527Z,10.00
2019-03-27T10:21:58.348Z,9.70
2019-03-27T10:24:29.976Z,9.90
2019-03-27T10:27:01.998Z,10.00
2019-03-27T10:29:33.644Z,9.90
2019-03-27T10:32:05.550Z,9.90
2019-03-27T10:34:37.208Z,9.80
2019-03-27T10:37:08.878Z,9.90
2019-03-27T10:39:40.518Z,9.90
2019-03-27T10:42:12.150Z,9.80
2019-03-27T10:44:43.761Z,9.70
2019-03-27T10:47:16.342Z,9.70
2019-03-27T10:49:48.016Z,9.80
2019-03-27T10:52:19.686Z,10.00
2019-03-27T10:54:51.379Z,10.00
2019-03-27T10:57:23.400Z,10.00
2019-03-27T10:59:55.052Z,10.00
2019-03-27T11:02:27.069Z,10.00
2019-03-27T11:04:58.745Z,10.00
2019-03-27T11:07:30.355Z,10.10
2019-03-27T11:10:02.319Z,10.20
2019-03-27T11:12:34.760Z,10.20
2019-03-27T11:15:07.109Z,10.30
2019-03-27T11:17:38.697Z,10.10
2019-03-27T11:20:10.392Z,10.00
2019-03-27T11:22:43.010Z,10.00
2019-03-27T11:25:14.639Z,10.10
2019-03-27T11:27:46.309Z,10.10
2019-03-27T11:30:18.149Z,10.40
2019-03-27T11:32:49.694Z,10.50
2019-03-27T11:35:21.220Z,10.40
2019-03-27T11:37:52.839Z,10.40
2019-03-27T11:40:24.459Z,10.50
2019-03-27T11:42:56.102Z,10.70
2019-03-27T11:45:27.729Z,10.70
2019-03-27T11:47:59.395Z,10.60
2019-03-27T11:50:43.735Z,10.60
2019-03-27T11:53:05.725Z,10.70
2019-03-27T11:55:37.616Z,10.50
2019-03-27T11:58:09.253Z,10.40
2019-03-27T12:00:53.852Z,10.30
2019-03-27T12:03:15.023Z,10.30
2019-03-27T12:05:47.114Z,10.40
2019-03-27T12:08:18.813Z,10.40
2019-03-27T12:10:50.800Z,10.60
2019-03-27T12:13:22.479Z,10.70
2019-03-27T12:15:54.148Z,10.80
2019-03-27T12:18:25.801Z,10.80
2019-03-27T12:20:59.895Z,10.80
2019-03-27T12:23:31.845Z,10.90
2019-03-27T12:26:15.017Z,11.10
2019-03-27T12:28:47.364Z,11.30
2019-03-27T12:31:18.989Z,11.30
2019-03-27T12:33:50.994Z,11.30
2019-03-27T12:36:22.945Z,11.10
2019-03-27T12:38:54.948Z,10.90
2019-03-27T12:41:26.945Z,10.80
2019-03-27T12:43:58.534Z,10.90
2019-03-27T12:46:30.510Z,10.80
2019-03-27T12:49:03.091Z,10.70
2019-03-27T12:51:34.778Z,10.70
2019-03-27T12:54:06.711Z,10.70
2019-03-27T12:56:38.830Z,10.90
2019-03-27T12:59:10.521Z,10.90
2019-03-27T13:01:42.213Z,11.00
2019-03-27T13:04:13.910Z,11.10
2019-03-27T13:06:46.170Z,11.10
2019-03-27T13:09:17.830Z,10.90
2019-03-27T13:11:49.420Z,10.90
2019-03-27T13:14:21.678Z,10.90
2019-03-27T13:16:53.375Z,10.90
2019-03-27T13:19:25.565Z,10.90
2019-03-27T13:21:57.845Z,10.70
2019-03-27T13:24:29.701Z,10.70
2019-03-27T13:27:01.743Z,10.80
2019-03-27T13:29:33.429Z,10.90
2019-03-27T13:32:05.049Z,10.80
2019-03-27T13:34:36.945Z,10.80
2019-03-27T13:37:08.976Z,10.90
2019-03-27T13:39:42.685Z,10.90
2019-03-27T13:42:14.434Z,10.90
2019-03-27T13:44:46.079Z,11.00
2019-03-27T13:47:18.141Z,11.10
2019-03-27T13:49:50.921Z,11.20
2019-03-27T13:52:22.621Z,11.20
2019-03-27T13:54:54.287Z,11.20
2019-03-27T13:57:25.987Z,11.30
2019-03-27T13:59:57.593Z,11.40
2019-03-27T14:02:29.152Z,11.40
2019-03-27T14:05:00.937Z,11.40
2019-03-27T14:07:33.134Z,11.30
2019-03-27T14:10:05.674Z,11.30
2019-03-27T14:12:37.308Z,11.30
2019-03-27T14:15:10.146Z,11.40
2019-03-27T14:17:42.171Z,11.30
2019-03-27T14:20:14.416Z,11.30
2019-03-27T14:22:47.071Z,11.40
2019-03-27T14:25:21.912Z,11.40
2019-03-27T14:27:52.724Z,11.40
2019-03-27T14:30:53.073Z,11.40
2019-03-27T14:33:24.641Z,11.40
2019-03-27T14:35:56.288Z,11.40
2019-03-27T14:38:27.984Z,11.40
2019-03-27T14:40:59.840Z,11.40
2019-03-27T14:43:31.487Z,11.30
2019-03-27T14:46:03.365Z,11.30
2019-03-27T14:48:35.282Z,11.30
2019-03-27T14:51:07.621Z,11.30
2019-03-27T14:53:39.289Z,11.30
2019-03-27T14:56:11.908Z,11.40
2019-03-27T14:58:43.468Z,11.40
2019-03-27T15:01:15.155Z,11.50
2019-03-27T15:03:46.758Z,11.50
2019-03-27T15:06:18.357Z,11.40
2019-03-27T15:08:50.208Z,11.40
2019-03-27T15:11:21.850Z,11.30
2019-03-27T15:13:53.347Z,11.30
2019-03-27T15:16:24.872Z,11.30
2019-03-27T15:18:56.962Z,11.20
2019-03-27T15:21:28.548Z,11.20
2019-03-27T15:24:00.144Z,11.20
2019-03-27T15:26:32.002Z,11.20
2019-03-27T15:29:03.670Z,11.20
2019-03-27T15:31:35.376Z,11.30
2019-03-27T15:34:06.960Z,11.30
2019-03-27T15:36:38.531Z,11.30
2019-03-27T15:39:10.174Z,11.30
2019-03-27T15:41:41.892Z,11.20
2019-03-27T15:44:13.842Z,11.20
2019-03-27T15:46:45.454Z,11.30
2019-03-27T15:49:17.264Z,11.20
2019-03-27T15:51:48.852Z,11.20
2019-03-27T15:54:20.483Z,11.30
2019-03-27T15:56:52.169Z,11.30
2019-03-27T15:59:23.843Z,11.30
2019-03-27T16:01:57.929Z,11.30
2019-03-27T16:04:28.706Z,11.30
2019-03-27T16:07:00.698Z,11.40
2019-03-27T16:09:32.357Z,11.30
2019-03-27T16:12:04.727Z,11.30
2019-03-27T16:14:37.185Z,11.20
2019-03-27T16:17:13.714Z,11.20
2019-03-27T16:19:42.275Z,11.20
2019-03-27T16:22:13.926Z,11.30
2019-03-27T16:24:46.373Z,11.20
2019-03-27T16:27:18.026Z,11.20
2019-03-27T16:29:49.679Z,11.20
2019-03-27T16:32:21.296Z,11.20
2019-03-27T16:34:52.883Z,11.10
2019-03-27T16:37:24.447Z,11.10
2019-03-27T16:39:56.426Z,11.10
2019-03-27T16:42:28.083Z,11.20
2019-03-27T16:44:59.699Z,11.20
2019-03-27T16:47:31.662Z,11.20
2019-03-27T16:50:04.340Z,11.30
2019-03-27T16:52:35.991Z,11.30
2019-03-27T16:55:08.710Z,11.20
2019-03-27T16:57:40.365Z,11.20
2019-03-27T17:00:12.286Z,11.20
2019-03-27T17:02:44.252Z,11.20
2019-03-27T17:05:16.160Z,11.20
2019-03-27T17:07:48.188Z,11.20
2019-03-27T17:10:19.836Z,11.20
2019-03-27T17:12:51.549Z,11.30
2019-03-27T17:15:23.141Z,11.20
2019-03-27T17:17:54.793Z,11.20
2019-03-27T17:20:26.464Z,11.20
2019-03-27T17:22:58.133Z,11.20
2019-03-27T17:25:29.742Z,11.20
2019-03-27T17:28:01.690Z,11.20
2019-03-27T17:30:33.273Z,11.10
2019-03-27T17:33:05.164Z,11.20
2019-03-27T17:35:36.818Z,11.20
2019-03-27T17:38:10.938Z,11.10
2019-03-27T17:40:41.736Z,11.10
2019-03-27T17:43:13.386Z,11.00
2019-03-27T17:45:45.054Z,11.10
2019-03-27T17:48:16.554Z,11.10
2019-03-27T17:50:48.780Z,11.10
2019-03-27T17:53:31.140Z,11.00
2019-03-27T17:55:53.952Z,11.00
2019-03-27T17:58:26.006Z,11.00
2019-03-27T18:01:00.902Z,11.00
2019-03-27T18:03:32.728Z,10.90
2019-03-27T18:06:04.334Z,10.90
2019-03-27T18:08:36.428Z,10.90
2019-03-27T18:11:09.482Z,10.70
2019-03-27T18:13:41.082Z,10.60
2019-03-27T18:16:12.761Z,10.60
2019-03-27T18:18:45.046Z,10.70
2019-03-27T18:21:17.033Z,10.70
2019-03-27T18:23:48.694Z,10.60
2019-03-27T18:26:21.961Z,10.60
2019-03-27T18:28:53.961Z,10.50
2019-03-27T18:31:26.390Z,10.40
2019-03-27T18:33:58.505Z,10.40
2019-03-27T18:36:30.029Z,10.40
2019-03-27T18:39:01.909Z,10.30
2019-03-27T18:41:34.981Z,10.40
2019-03-27T18:44:06.869Z,10.50
2019-03-27T18:46:38.567Z,10.50
2019-03-27T18:49:10.667Z,10.30
2019-03-27T18:51:42.451Z,10.20
2019-03-27T18:54:14.023Z,10.20
2019-03-27T18:56:45.689Z,10.10
2019-03-27T18:59:17.683Z,10.10
2019-03-27T19:01:49.470Z,10.10
2019-03-27T19:04:21.207Z,10.10
2019-03-27T19:06:52.867Z,10.20
2019-03-27T19:09:24.543Z,10.20
2019-03-27T19:11:56.168Z,10.30
2019-03-27T19:14:28.131Z,10.30
2019-03-27T19:16:59.752Z,10.40
2019-03-27T19:19:31.449Z,10.40
2019-03-27T19:22:03.061Z,10.40
2019-03-27T19:24:34.734Z,10.40
2019-03-27T19:27:06.310Z,10.40
2019-03-27T19:29:37.956Z,10.30
2019-03-27T19:32:09.744Z,10.30
2019-03-27T19:34:41.871Z,10.30
2019-03-27T19:37:13.541Z,10.30
2019-03-27T19:39:45.505Z,10.30
2019-03-27T19:42:17.559Z,10.40
2019-03-27T19:44:49.636Z,10.40
2019-03-27T19:47:21.692Z,10.30
2019-03-27T19:49:54.978Z,10.30
2019-03-27T19:52:26.668Z,10.40
2019-03-27T19:54:58.364Z,10.30
2019-03-27T19:57:30.052Z,10.30
2019-03-27T20:00:01.694Z,10.30
2019-03-27T20:02:34.968Z,10.30
2019-03-27T20:05:07.959Z,10.30
2019-03-27T20:07:39.606Z,10.30
2019-03-27T20:10:13.175Z,10.30
2019-03-27T20:12:47.796Z,10.30
2019-03-27T20:15:20.018Z,10.30
2019-03-27T20:17:51.572Z,10.20
2019-03-27T20:20:23.187Z,10.20
2019-03-27T20:22:54.874Z,10.30
2019-03-27T20:25:26.973Z,10.30
2019-03-27T20:27:59.005Z,10.30
2019-03-27T20:30:30.636Z,10.30
2019-03-27T20:33:02.278Z,10.30
2019-03-27T20:35:35.296Z,10.30
2019-03-27T20:38:07.351Z,10.30
2019-03-27T20:40:39.330Z,10.20
2019-03-27T20:43:11.029Z,10.20
2019-03-27T20:45:42.710Z,10.20
2019-03-27T20:48:14.669Z,10.20
2019-03-27T20:50:47.340Z,10.20
2019-03-27T20:53:19.026Z,10.20
2019-03-27T20:55:50.641Z,10.20
2019-03-27T20:58:22.238Z,10.20
2019-03-27T21:00:53.884Z,10.30
2019-03-27T21:03:25.454Z,10.30
2019-03-27T21:05:57.191Z,10.30
2019-03-27T21:08:28.833Z,10.20
2019-03-27T21:11:00.778Z,10.20
2019-03-27T21:13:33.489Z,10.10
2019-03-27T21:16:05.555Z,10.10
2019-03-27T21:18:37.609Z,10.20
2019-03-27T21:21:09.488Z,10.10
2019-03-27T21:23:41.100Z,10.00
2019-03-27T21:26:12.785Z,10.00
2019-03-27T21:28:44.763Z,10.00
2019-03-27T21:31:17.052Z,10.00
2019-03-27T21:33:48.695Z,10.00
2019-03-27T21:36:20.292Z,10.00
2019-03-27T21:38:52.040Z,10.00
2019-03-27T21:41:24.388Z,10.00
2019-03-27T21:43:56.043Z,9.90
2019-03-27T21:46:27.762Z,9.90
2019-03-27T21:48:59.857Z,9.90
2019-03-27T21:51:31.997Z,10.00
2019-03-27T21:54:03.634Z,9.90
2019-03-27T21:56:35.288Z,9.90
2019-03-27T21:59:06.930Z,9.90
2019-03-27T22:01:39.001Z,9.90
2019-03-27T22:04:10.674Z,9.90
2019-03-27T22:06:42.349Z,9.90
2019-03-27T22:09:14.111Z,9.90
2019-03-27T22:11:46.010Z,9.90
2019-03-27T22:14:17.684Z,9.90
2019-03-27T22:16:49.646Z,9.80
2019-03-27T22:19:21.297Z,9.90
2019-03-27T22:21:54.353Z,9.80
2019-03-27T22:24:26.042Z,9.80
2019-03-27T22:26:57.609Z,9.70
2019-03-27T22:29:29.325Z,9.60
2019-03-27T22:32:01.059Z,9.70
2019-03-27T22:34:32.794Z,9.70
2019-03-27T22:37:04.883Z,9.70
2019-03-27T22:39:36.559Z,9.70
2019-03-27T22:42:08.589Z,9.80
2019-03-27T22:44:40.861Z,9.80
2019-03-27T22:47:12.935Z,9.80
2019-03-27T22:49:44.627Z,9.80
2019-03-27T22:52:16.592Z,9.70
2019-03-27T22:54:48.235Z,9.70
2019-03-27T22:57:20.288Z,9.70
2019-03-27T22:59:51.993Z,9.80
2019-03-27T23:02:24.258Z,9.80
2019-03-27T23:04:56.258Z,9.80
2019-03-27T23:07:27.869Z,9.90
2019-03-27T23:09:59.577Z,9.90
2019-03-27T23:12:31.287Z,9.90
2019-03-27T23:15:03.398Z,9.90
2019-03-27T23:17:35.006Z,9.80
2019-03-27T23:20:07.997Z,9.80
2019-03-27T23:22:40.098Z,9.80
2019-03-27T23:25:11.911Z,9.70
2019-03-27T23:27:43.605Z,9.80
2019-03-27T23:30:15.352Z,9.80
2019-03-27T23:32:47.074Z,9.70
2019-03-27T23:35:18.712Z,9.80
2019-03-27T23:37:50.409Z,9.70
2019-03-27T23:40:22.604Z,9.70
2019-03-27T23:42:54.314Z,9.60
2019-03-27T23:45:26.362Z,9.70
2019-03-27T23:47:57.974Z,9.70
2019-03-27T23:50:29.994Z,9.70
2019-03-27T23:53:01.938Z,9.70
2019-03-27T23:55:33.867Z,9.70
2019-03-27T23:58:05.672Z,9.70
